Time;durP1;ratioP1;P1;durP2;ratioP2;P2;SDS_P1;SDS_P2;PMS_P1;PMS_P2;Temp;Humidity;BMP_temperature;BMP_pressure;BME280_temperature;BME280_humidity;BME280_pressure;Samples;Min_cycle;Max_cycle;Signal;HPM_P1;HPM_P2
2022/09/11 00:01:28;;;;;;;2.20;0.83;;;16.70;74.50;;;;;;5113024;28;20374;-86
2022/09/11 00:03:56;;;;;;;3.00;0.93;;;16.70;73.10;;;;;;5112342;28;20847;-82
2022/09/11 00:06:24;;;;;;;2.47;1.00;;;16.60;75.50;;;;;;5112412;28;20383;-83
2022/09/11 00:08:59;;;;;;;2.10;0.90;;;16.70;73.20;;;;;;5112288;28;20965;-85
2022/09/11 00:11:29;;;;;;;3.50;0.90;;;16.80;72.10;;;;;;5112516;28;20371;-87
2022/09/11 00:13:56;;;;;;;2.22;1.00;;;17.00;72.60;;;;;;5112435;28;20372;-89
2022/09/11 00:16:27;;;;;;;2.45;0.95;;;17.10;72.40;;;;;;5113057;28;20387;-84
2022/09/11 00:18:56;;;;;;;3.10;1.00;;;16.90;71.50;;;;;;5112461;28;20382;-85
2022/09/11 00:21:24;;;;;;;2.83;1.08;;;16.90;72.50;;;;;;5112504;28;20410;-84
2022/09/11 00:23:52;;;;;;;3.00;1.30;;;16.90;69.80;;;;;;5112831;28;20373;-81
2022/09/11 00:26:20;;;;;;;2.45;1.20;;;16.90;70.90;;;;;;5116908;28;20367;-86
2022/09/11 00:28:49;;;;;;;2.38;0.90;;;17.00;71.00;;;;;;5117811;28;20378;-82
2022/09/11 00:31:27;;;;;;;3.58;1.10;;;17.20;69.60;;;;;;5119209;28;20458;-82
2022/09/11 00:33:55;;;;;;;2.33;1.00;;;17.00;67.90;;;;;;5121431;28;20371;-81
2022/09/11 00:36:24;;;;;;;3.13;1.00;;;17.00;67.90;;;;;;5117549;28;20379;-81
2022/09/11 00:38:53;;;;;;;3.03;0.85;;;16.90;68.00;;;;;;5117487;28;20388;-81
2022/09/11 00:41:24;;;;;;;2.28;0.80;;;16.90;67.70;;;;;;5116242;28;20413;-82
2022/09/11 00:43:58;;;;;;;2.17;0.90;;;16.90;68.30;;;;;;5116188;28;20396;-78
2022/09/11 00:46:39;;;;;;;1.58;0.77;;;17.00;68.10;;;;;;5115888;28;20375;-84
2022/09/11 00:49:19;;;;;;;3.45;0.90;;;17.10;67.60;;;;;;5116603;28;20803;-83
2022/09/11 00:51:52;;;;;;;2.00;0.90;;;17.30;67.90;;;;;;5115414;28;20443;-83
2022/09/11 00:54:26;;;;;;;1.38;0.80;;;17.30;67.20;;;;;;5115922;28;20383;-83
2022/09/11 00:56:56;;;;;;;1.52;0.68;;;17.30;64.10;;;;;;5115750;28;20375;-82
2022/09/11 00:59:26;;;;;;;1.60;0.80;;;17.40;65.70;;;;;;5115923;28;20454;-83
2022/09/11 01:01:54;;;;;;;2.17;0.80;;;17.30;64.10;;;;;;5115829;28;20371;-82
2022/09/11 01:04:22;;;;;;;1.65;0.80;;;17.40;65.50;;;;;;5115395;28;20367;-84
2022/09/11 01:06:56;;;;;;;2.63;0.80;;;17.60;63.50;;;;;;5116088;28;20389;-84
2022/09/11 01:09:28;;;;;;;3.63;1.10;;;17.90;64.40;;;;;;5115437;28;20378;-84
2022/09/11 01:12:26;;;;;;;1.73;0.88;;;18.00;62.50;;;;;;5115364;28;20363;-81
2022/09/11 01:15:24;;;;;;;2.50;0.80;;;18.00;61.40;;;;;;5117661;28;20449;-81
2022/09/11 01:18:28;;;;;;;2.60;0.80;;;18.10;62.80;;;;;;5115134;28;20436;-82
2022/09/11 01:21:22;;;;;;;2.10;0.90;;;18.20;59.00;;;;;;5114773;28;20712;-83
2022/09/11 01:23:59;;;;;;;2.78;0.70;;;18.20;59.50;;;;;;5115367;28;20890;-84
2022/09/11 01:27:09;;;;;;;1.48;0.75;;;18.50;58.50;;;;;;5114612;28;20382;-83
2022/09/11 01:29:46;;;;;;;2.35;0.70;;;19.00;58.40;;;;;;5115176;28;20359;-82
2022/09/11 01:32:22;;;;;;;1.92;0.73;;;19.50;56.80;;;;;;5114915;28;20881;-80
2022/09/11 01:35:00;;;;;;;1.83;0.73;;;19.90;57.50;;;;;;5114834;28;20390;-82
2022/09/11 01:38:08;;;;;;;1.50;0.80;;;20.60;55.50;;;;;;5114557;28;20369;-83
2022/09/11 01:40:39;;;;;;;1.77;0.90;;;21.00;57.00;;;;;;5114972;28;20405;-82
2022/09/11 01:43:20;;;;;;;2.43;0.80;;;21.40;54.20;;;;;;5114747;28;20419;-81
2022/09/11 01:45:50;;;;;;;1.77;0.70;;;21.90;54.00;;;;;;5114231;28;20375;-80
2022/09/11 01:48:22;;;;;;;2.08;0.80;;;21.80;50.00;;;;;;5114706;28;20370;-81
2022/09/11 01:50:53;;;;;;;1.67;0.80;;;21.90;50.00;;;;;;5114823;28;20371;-83
2022/09/11 01:53:25;;;;;;;3.22;0.80;;;21.70;50.80;;;;;;5115075;28;20359;-82
2022/09/11 01:56:18;;;;;;;1.40;0.70;;;22.00;49.90;;;;;;5114664;28;20394;-81
2022/09/11 01:58:47;;;;;;;1.83;0.73;;;22.10;50.40;;;;;;5115265;28;20429;-83
2022/09/11 02:01:23;;;;;;;1.77;0.90;;;22.20;50.80;;;;;;5115099;28;20462;-81
2022/09/11 02:04:06;;;;;;;1.80;0.70;;;22.30;50.20;;;;;;5096361;28;20371;-83
2022/09/11 02:07:02;;;;;;;2.08;0.90;;;22.70;49.10;;;;;;5115019;28;20371;-82
2022/09/11 02:09:38;;;;;;;1.20;0.60;;;23.20;48.00;;;;;;5114368;28;20439;-84
2022/09/11 02:12:09;;;;;;;1.50;0.90;;;24.30;46.10;;;;;;5115234;28;20377;-82
2022/09/11 02:14:43;;;;;;;1.40;0.77;;;24.40;46.90;;;;;;5115192;28;20398;-84
2022/09/11 02:17:25;;;;;;;1.33;0.73;;;24.10;46.10;;;;;;5114864;28;20883;-82
2022/09/11 02:19:58;;;;;;;3.00;0.80;;;23.60;44.20;;;;;;5114620;28;20450;-81
2022/09/11 02:22:26;;;;;;;2.08;0.80;;;23.60;45.90;;;;;;5114148;28;20366;-83
2022/09/11 02:24:54;;;;;;;2.80;0.80;;;23.90;45.30;;;;;;5113681;28;20374;-82
2022/09/11 02:27:26;;;;;;;1.55;0.70;;;24.40;43.80;;;;;;5113839;28;20382;-84
2022/09/11 02:29:54;;;;;;;1.20;0.60;;;25.10;43.00;;;;;;5113864;28;20454;-83
2022/09/11 02:32:26;;;;;;;1.35;0.70;;;24.60;41.90;;;;;;5113932;28;20366;-82
2022/09/11 02:34:55;;;;;;;1.60;0.70;;;24.30;42.80;;;;;;5113688;28;20512;-83
2022/09/11 02:37:48;;;;;;;2.30;0.90;;;23.60;42.90;;;;;;5113523;28;20372;-82
2022/09/11 02:40:25;;;;;;;2.63;0.70;;;23.80;43.00;;;;;;5094950;28;20367;-81
2022/09/11 02:46:42;;;;;;;1.77;0.70;;;24.50;41.20;;;;;;5114388;28;20373;-83
2022/09/11 02:49:19;;;;;;;1.70;0.65;;;24.80;41.20;;;;;;5113449;28;20718;-82
2022/09/11 02:51:55;;;;;;;1.42;0.80;;;24.90;41.80;;;;;;5114038;28;20378;-82
2022/09/11 02:54:46;;;;;;;2.13;0.77;;;24.50;41.30;;;;;;5113564;28;20378;-82
2022/09/11 02:57:28;;;;;;;1.52;0.80;;;24.50;41.40;;;;;;5130393;28;20450;-83
2022/09/11 03:00:01;;;;;;;2.13;0.80;;;25.10;41.90;;;;;;5118195;28;20442;-81
2022/09/11 03:02:30;;;;;;;0.80;0.60;;;24.60;41.90;;;;;;5113590;28;20367;-83
2022/09/11 03:04:58;;;;;;;1.65;0.73;;;24.40;43.00;;;;;;5113216;28;20410;-84
2022/09/11 03:07:25;;;;;;;1.13;0.53;;;24.90;42.60;;;;;;5113834;28;20483;-82
2022/09/11 03:09:53;;;;;;;6.50;0.70;;;25.60;43.10;;;;;;5112993;28;20734;-83
2022/09/11 03:12:20;;;;;;;2.00;0.70;;;27.00;41.30;;;;;;5094892;28;20905;-82
2022/09/11 03:14:48;;;;;;;1.48;0.70;;;27.90;39.50;;;;;;5113163;28;20407;-81
2022/09/11 03:17:16;;;;;;;0.93;0.60;;;27.40;39.50;;;;;;5113212;28;20383;-81
2022/09/11 03:19:43;;;;;;;2.72;0.90;;;27.00;38.80;;;;;;5112964;28;20371;-83
2022/09/11 03:22:10;;;;;;;2.00;0.70;;;26.30;39.50;;;;;;5112944;28;20865;-82
2022/09/11 03:24:38;;;;;;;1.63;0.63;;;26.40;41.60;;;;;;5113866;28;20729;-83
2022/09/11 03:27:05;;;;;;;1.73;0.80;;;26.60;41.20;;;;;;5113296;28;20375;-82
2022/09/11 03:29:33;;;;;;;2.10;0.80;;;26.80;40.80;;;;;;5113133;28;20394;-82
2022/09/11 03:32:01;;;;;;;2.15;0.70;;;27.30;40.50;;;;;;5094699;28;20385;-85
2022/09/11 03:34:28;;;;;;;1.08;0.60;;;27.80;40.20;;;;;;5113608;28;20378;-84
2022/09/11 03:36:56;;;;;;;1.00;0.70;;;28.80;37.80;;;;;;5116542;28;20379;-81
2022/09/11 03:39:23;;;;;;;1.55;0.75;;;28.30;38.90;;;;;;5116692;28;20865;-81
2022/09/11 03:41:50;;;;;;;1.38;0.70;;;28.70;37.30;;;;;;5117333;28;20406;-83
2022/09/11 03:44:17;;;;;;;2.20;0.80;;;29.30;36.90;;;;;;5116043;28;20370;-83
2022/09/11 03:46:44;;;;;;;2.15;0.73;;;29.60;36.20;;;;;;5116042;28;20876;-81
2022/09/11 03:49:11;;;;;;;2.10;0.80;;;28.60;37.10;;;;;;5113835;28;20470;-82
2022/09/11 03:51:39;;;;;;;1.02;0.60;;;27.80;37.60;;;;;;5095404;28;20386;-84
2022/09/11 03:54:06;;;;;;;1.58;0.70;;;27.70;38.20;;;;;;5113407;28;20394;-83
2022/09/11 03:56:33;;;;;;;1.27;0.63;;;27.90;39.20;;;;;;5113153;28;20914;-84
2022/09/11 03:59:00;;;;;;;1.98;0.80;;;27.80;38.60;;;;;;5113762;28;20385;-84
2022/09/11 04:01:28;;;;;;;3.03;0.80;;;27.20;38.80;;;;;;5116805;28;20375;-82
2022/09/11 04:03:55;;;;;;;1.40;0.80;;;27.00;39.30;;;;;;5117022;28;20391;-83
2022/09/11 04:06:23;;;;;;;1.42;0.70;;;27.80;38.70;;;;;;5116847;28;20730;-84
2022/09/11 04:08:50;;;;;;;1.75;0.90;;;28.10;39.30;;;;;;5116407;28;20787;-85
2022/09/11 04:11:17;;;;;;;1.67;0.90;;;28.80;38.30;;;;;;5116425;28;20359;-83
2022/09/11 04:13:44;;;;;;;1.95;0.80;;;29.70;37.80;;;;;;5116822;28;20829;-82
2022/09/11 04:16:14;;;;;;;1.45;0.80;;;30.40;36.30;;;;;;5116435;28;20427;-85
2022/09/11 04:18:44;;;;;;;1.93;0.80;;;29.50;37.30;;;;;;5116449;28;20366;-84
2022/09/11 04:21:14;;;;;;;1.47;0.80;;;29.00;38.20;;;;;;5116532;28;20366;-85
2022/09/11 04:23:41;;;;;;;2.42;0.80;;;29.30;37.40;;;;;;5116208;28;20375;-83
2022/09/11 04:26:17;;;;;;;1.55;0.82;;;29.00;37.60;;;;;;5116442;28;20402;-86
2022/09/11 04:28:45;;;;;;;1.73;0.80;;;28.70;38.40;;;;;;5116083;28;20379;-84
2022/09/11 04:31:13;;;;;;;1.23;0.75;;;28.80;37.80;;;;;;5116687;28;20362;-81
2022/09/11 04:33:40;;;;;;;1.63;0.70;;;29.00;37.80;;;;;;5116109;28;20465;-83
2022/09/11 04:36:11;;;;;;;1.27;0.75;;;28.20;37.80;;;;;;5115925;28;20394;-82
2022/09/11 04:38:43;;;;;;;1.55;0.80;;;27.50;37.10;;;;;;5115954;28;20371;-84
2022/09/11 04:41:10;;;;;;;1.35;0.70;;;27.40;39.60;;;;;;5115952;28;20428;-83
2022/09/11 04:43:40;;;;;;;1.20;0.90;;;27.50;39.90;;;;;;5097486;28;20421;-84
2022/09/11 04:46:12;;;;;;;1.50;0.80;;;28.00;37.10;;;;;;5115626;28;20370;-83
2022/09/11 04:48:51;;;;;;;1.35;0.90;;;28.00;37.30;;;;;;5115738;28;20783;-83
2022/09/11 04:51:30;;;;;;;1.27;0.80;;;27.90;37.60;;;;;;5115852;28;20932;-86
2022/09/11 04:53:59;;;;;;;1.40;0.83;;;28.60;38.90;;;;;;5118763;28;20358;-85
2022/09/11 04:56:28;;;;;;;1.63;0.83;;;29.80;37.70;;;;;;5115783;28;20394;-84
2022/09/11 04:58:59;;;;;;;1.23;0.80;;;30.60;36.80;;;;;;5097720;28;20885;-83
2022/09/11 05:01:28;;;;;;;1.58;0.70;;;30.60;37.40;;;;;;5115692;28;20378;-83
2022/09/11 05:03:55;;;;;;;1.77;0.88;;;30.70;36.80;;;;;;5115288;28;20374;-84
2022/09/11 05:06:23;;;;;;;1.70;0.90;;;30.20;37.00;;;;;;5115406;28;20371;-82
2022/09/11 05:08:51;;;;;;;1.85;0.90;;;30.20;37.50;;;;;;5115323;28;20391;-85
2022/09/11 05:11:21;;;;;;;1.60;0.80;;;29.80;37.20;;;;;;5114692;28;20854;-83
2022/09/11 05:13:48;;;;;;;1.38;0.90;;;29.70;36.70;;;;;;5115412;28;20382;-81
2022/09/11 05:16:16;;;;;;;1.85;0.80;;;28.90;38.00;;;;;;5115858;28;20485;-84
2022/09/11 05:18:51;;;;;;;1.40;0.80;;;28.40;38.10;;;;;;5115672;28;20398;-84
2022/09/11 05:21:21;;;;;;;2.17;1.00;;;27.80;38.40;;;;;;5115433;28;20393;-82
2022/09/11 05:23:50;;;;;;;1.80;1.00;;;27.30;39.50;;;;;;5115192;28;20429;-82
2022/09/11 05:26:20;;;;;;;2.10;0.88;;;27.00;40.80;;;;;;5119488;28;20375;-82
2022/09/11 05:28:52;;;;;;;1.80;0.80;;;27.20;40.50;;;;;;5124090;28;20421;-81
2022/09/11 05:31:19;;;;;;;1.42;0.90;;;27.40;39.80;;;;;;5119072;28;20373;-84
2022/09/11 05:33:47;;;;;;;2.40;1.00;;;28.10;39.80;;;;;;5119998;28;20378;-82
2022/09/11 05:36:15;;;;;;;1.40;0.85;;;29.00;38.70;;;;;;5126672;28;20440;-80
2022/09/11 05:38:43;;;;;;;2.38;0.95;;;28.80;38.20;;;;;;5135721;28;20359;-82
2022/09/11 05:41:12;;;;;;;3.13;0.98;;;29.80;39.10;;;;;;5134938;28;20377;-82
2022/09/11 05:43:40;;;;;;;1.83;0.90;;;28.80;38.50;;;;;;5135601;28;20363;-81
2022/09/11 05:46:13;;;;;;;1.40;0.80;;;29.20;38.00;;;;;;5136380;28;20371;-82
2022/09/11 05:48:40;;;;;;;1.67;0.85;;;29.00;38.30;;;;;;5127806;28;20366;-82
2022/09/11 05:51:11;;;;;;;2.20;0.90;;;29.10;39.30;;;;;;5115528;28;20382;-81
2022/09/11 05:53:39;;;;;;;2.20;0.88;;;28.60;38.80;;;;;;5115386;28;20443;-83
2022/09/11 05:56:14;;;;;;;1.92;0.90;;;28.30;38.80;;;;;;5114632;28;20481;-82
2022/09/11 05:58:42;;;;;;;1.25;0.68;;;28.70;38.70;;;;;;5115292;28;20895;-85
2022/09/11 06:01:12;;;;;;;3.50;1.00;;;29.00;37.90;;;;;;5115596;28;20402;-82
2022/09/11 06:03:40;;;;;;;1.55;0.90;;;28.80;38.00;;;;;;5115269;28;20371;-83
2022/09/11 06:06:09;;;;;;;3.15;0.98;;;28.20;38.70;;;;;;5114796;28;20971;-83
2022/09/11 06:08:38;;;;;;;1.92;1.10;;;27.80;40.00;;;;;;5095782;28;20763;-83
2022/09/11 06:11:07;;;;;;;1.97;1.00;;;28.30;39.30;;;;;;5114351;28;20406;-82
2022/09/11 06:13:39;;;;;;;1.98;0.80;;;29.80;39.30;;;;;;5114121;28;20375;-83
2022/09/11 06:16:18;;;;;;;2.67;1.17;;;28.50;38.60;;;;;;5113930;28;20727;-82
2022/09/11 06:18:49;;;;;;;2.38;0.90;;;28.10;39.00;;;;;;5113910;28;20764;-82
2022/09/11 06:21:23;;;;;;;2.22;1.05;;;27.10;39.60;;;;;;5112124;28;20384;-81
2022/09/11 06:23:51;;;;;;;1.73;0.90;;;25.80;41.20;;;;;;5113431;28;20850;-82
2022/09/11 06:26:21;;;;;;;2.40;1.00;;;25.00;41.40;;;;;;5114114;28;20375;-82
2022/09/11 06:28:49;;;;;;;2.53;0.93;;;24.50;43.00;;;;;;5114057;28;20363;-81
2022/09/11 06:31:19;;;;;;;2.50;1.10;;;24.40;43.60;;;;;;5113851;28;20370;-83
2022/09/11 06:33:49;;;;;;;2.50;1.00;;;24.20;43.80;;;;;;5113937;28;20756;-81
2022/09/11 06:36:19;;;;;;;3.63;1.03;;;24.00;44.00;;;;;;5114090;28;20391;-80
2022/09/11 06:38:51;;;;;;;2.20;1.17;;;23.80;44.50;;;;;;5115614;28;20367;-83
2022/09/11 06:41:19;;;;;;;3.47;1.17;;;23.50;44.80;;;;;;5117421;28;20367;-83
2022/09/11 06:43:48;;;;;;;2.75;1.10;;;23.30;45.80;;;;;;5117410;28;20390;-81
2022/09/11 06:46:17;;;;;;;2.35;1.30;;;23.20;45.40;;;;;;5118784;28;20378;-82
2022/09/11 06:48:46;;;;;;;1.83;1.20;;;23.00;45.50;;;;;;5117069;28;20374;-82
2022/09/11 06:51:16;;;;;;;2.80;1.10;;;23.20;45.60;;;;;;5097694;28;20392;-81
2022/09/11 06:53:46;;;;;;;2.28;1.15;;;23.60;45.20;;;;;;5114343;28;20386;-80
2022/09/11 06:56:15;;;;;;;2.15;1.00;;;23.50;45.30;;;;;;5113739;28;20402;-81
2022/09/11 06:58:44;;;;;;;3.67;1.10;;;23.00;44.60;;;;;;5113461;28;20370;-82
2022/09/11 07:01:17;;;;;;;1.65;1.17;;;22.70;46.00;;;;;;5113393;28;20375;-81
2022/09/11 07:03:46;;;;;;;3.28;1.30;;;22.50;46.90;;;;;;5113487;28;20837;-82
2022/09/11 07:06:18;;;;;;;2.15;1.40;;;22.50;46.90;;;;;;5113383;28;20411;-82
2022/09/11 07:09:01;;;;;;;4.63;1.40;;;22.40;46.80;;;;;;5113104;28;20865;-83
2022/09/11 07:11:33;;;;;;;2.33;1.40;;;22.30;47.10;;;;;;5113072;28;20391;-82
2022/09/11 07:14:05;;;;;;;3.50;1.40;;;22.20;47.20;;;;;;5112805;28;20371;-81
2022/09/11 07:16:32;;;;;;;3.25;1.23;;;22.30;47.30;;;;;;5112851;28;20874;-84
2022/09/11 07:18:59;;;;;;;2.33;1.30;;;22.30;46.40;;;;;;5113050;28;20372;-81
2022/09/11 07:21:27;;;;;;;2.70;0.90;;;22.10;47.80;;;;;;5112836;28;20370;-82
2022/09/11 07:23:57;;;;;;;3.10;1.20;;;21.80;46.30;;;;;;5112868;28;20370;-81
2022/09/11 07:26:26;;;;;;;2.42;0.90;;;21.70;47.60;;;;;;5112864;28;20937;-81
2022/09/11 07:28:56;;;;;;;1.17;0.77;;;21.40;45.80;;;;;;5113085;28;20378;-80
2022/09/11 07:31:28;;;;;;;1.80;0.88;;;21.20;45.70;;;;;;5112948;28;20730;-81
2022/09/11 07:33:55;;;;;;;2.30;0.73;;;21.00;45.60;;;;;;5115051;28;20827;-81
2022/09/11 07:36:25;;;;;;;2.73;0.90;;;20.70;45.70;;;;;;5116811;28;20394;-80
2022/09/11 07:38:53;;;;;;;2.60;0.90;;;20.20;46.10;;;;;;5117079;28;20366;-79
2022/09/11 07:41:25;;;;;;;1.95;0.88;;;19.80;46.90;;;;;;5116731;28;20466;-81
2022/09/11 07:43:54;;;;;;;1.58;0.90;;;19.50;47.50;;;;;;5116789;28;20365;-83
2022/09/11 07:46:23;;;;;;;2.63;0.80;;;19.30;48.50;;;;;;5116647;28;20439;-81
2022/09/11 07:48:50;;;;;;;2.78;0.98;;;19.00;48.80;;;;;;5116605;28;20370;-81
2022/09/11 07:51:18;;;;;;;1.98;1.00;;;18.90;49.30;;;;;;5116673;28;20384;-81
2022/09/11 07:53:51;;;;;;;1.50;0.88;;;18.80;49.50;;;;;;5116768;28;20905;-83
2022/09/11 07:56:28;;;;;;;2.75;1.00;;;18.60;49.90;;;;;;5116869;28;20391;-83
2022/09/11 07:58:56;;;;;;;3.47;1.10;;;18.50;50.30;;;;;;5117143;28;20363;-85
2022/09/11 08:01:28;;;;;;;2.72;1.20;;;18.40;50.00;;;;;;5116868;28;20363;-85
2022/09/11 08:04:07;;;;;;;2.67;1.10;;;18.30;50.50;;;;;;5116990;28;20454;-80
2022/09/11 08:06:36;;;;;;;2.08;1.10;;;18.20;50.20;;;;;;5098604;28;20870;-84
2022/09/11 08:09:06;;;;;;;3.03;1.10;;;18.20;50.40;;;;;;5116369;28;20391;-82
2022/09/11 08:11:38;;;;;;;2.20;1.00;;;18.10;50.70;;;;;;5116387;28;20898;-81
2022/09/11 08:14:06;;;;;;;2.30;1.20;;;18.00;50.00;;;;;;5116493;28;20760;-86
2022/09/11 08:16:36;;;;;;;3.88;1.63;;;17.90;50.90;;;;;;5115980;28;20750;-78
2022/09/11 08:19:04;;;;;;;1.80;1.20;;;17.90;52.20;;;;;;5116373;28;20359;-83
2022/09/11 08:21:32;;;;;;;2.45;1.27;;;17.80;52.50;;;;;;5116967;28;20430;-82
2022/09/11 08:23:59;;;;;;;2.15;1.10;;;17.70;54.40;;;;;;5116842;28;20887;-83
2022/09/11 08:26:32;;;;;;;3.67;1.50;;;17.70;56.20;;;;;;5116471;28;20379;-83
2022/09/11 08:29:00;;;;;;;3.40;1.40;;;17.60;57.60;;;;;;5116569;28;20850;-79
2022/09/11 08:31:28;;;;;;;3.78;1.40;;;17.50;58.40;;;;;;5116001;28;20382;-79
2022/09/11 08:33:56;;;;;;;6.28;1.40;;;17.40;59.00;;;;;;5116072;28;20373;-79
2022/09/11 08:36:23;;;;;;;3.22;1.40;;;17.30;59.40;;;;;;5118177;28;20402;-81
2022/09/11 08:38:51;;;;;;;2.57;1.23;;;17.20;59.90;;;;;;5116421;28;20369;-81
2022/09/11 08:41:39;;;;;;;4.10;1.88;;;16.90;59.90;;;;;;5116035;28;20406;-80
2022/09/11 08:44:16;;;;;;;3.50;1.50;;;17.00;60.50;;;;;;5115375;28;20373;-79
2022/09/11 08:46:47;;;;;;;4.35;1.70;;;17.00;60.70;;;;;;5115790;28;20367;-79
2022/09/11 08:49:33;;;;;;;3.20;1.60;;;16.90;60.70;;;;;;5116279;28;20408;-86
2022/09/11 08:52:04;;;;;;;2.22;1.25;;;16.80;61.50;;;;;;5115961;28;20367;-85
2022/09/11 08:54:37;;;;;;;2.15;1.40;;;16.70;61.50;;;;;;5115479;28;20420;-79
2022/09/11 08:57:11;;;;;;;2.83;1.52;;;16.70;61.70;;;;;;5116046;28;20383;-78
2022/09/11 08:59:43;;;;;;;3.60;1.45;;;16.60;62.30;;;;;;5115269;28;20394;-79
2022/09/11 09:02:40;;;;;;;3.92;1.40;;;18.00;63.30;;;;;;5115649;28;20864;-86
2022/09/11 09:05:19;;;;;;;4.95;1.60;;;16.40;62.90;;;;;;5032696;28;20398;-80
2022/09/11 09:07:54;;;;;;;3.80;1.40;;;16.20;63.50;;;;;;5033193;28;20920;-82
2022/09/11 09:10:39;;;;;;;3.25;1.38;;;16.10;63.70;;;;;;5033477;28;20416;-89
2022/09/11 09:13:31;;;;;;;2.85;1.50;;;16.00;64.20;;;;;;5033460;28;20453;-83
2022/09/11 09:16:22;;;;;;;2.92;1.35;;;15.90;64.60;;;;;;5032180;28;20460;-81
2022/09/11 09:18:59;;;;;;;3.13;1.30;;;15.90;64.80;;;;;;5032459;28;20408;-79
2022/09/11 09:21:34;;;;;;;3.85;1.63;;;15.90;65.10;;;;;;5032755;28;20385;-83
2022/09/11 09:24:18;;;;;;;2.63;1.40;;;16.60;66.30;;;;;;5032765;28;20455;-81
2022/09/11 09:26:52;;;;;;;4.45;1.80;;;15.60;66.00;;;;;;5032236;28;20388;-76
2022/09/11 09:29:23;;;;;;;3.57;1.80;;;15.40;66.60;;;;;;5032744;28;20790;-82
2022/09/11 09:32:03;;;;;;;2.95;1.70;;;15.20;67.20;;;;;;5032344;28;20386;-81
2022/09/11 09:34:36;;;;;;;4.38;2.20;;;15.00;68.00;;;;;;5032138;28;20380;-80
2022/09/11 09:37:14;;;;;;;4.55;2.20;;;14.90;68.60;;;;;;5032590;28;20393;-79
2022/09/11 09:39:42;;;;;;;3.80;2.03;;;14.70;69.50;;;;;;5031837;28;20369;-77
2022/09/11 09:42:15;;;;;;;4.35;2.15;;;14.70;70.50;;;;;;5072305;28;20411;-78
2022/09/11 09:45:03;;;;;;;3.90;2.30;;;14.70;70.90;;;;;;5114814;28;20484;-78
2022/09/11 09:47:31;;;;;;;4.25;2.28;;;14.50;71.40;;;;;;5115881;28;20382;-83
2022/09/11 09:49:59;;;;;;;3.53;2.10;;;14.50;72.20;;;;;;5117653;28;20371;-80
2022/09/11 09:52:34;;;;;;;4.82;2.22;;;14.40;73.00;;;;;;5119061;28;20375;-79
2022/09/11 09:55:04;;;;;;;6.37;2.70;;;14.20;74.00;;;;;;5120122;28;20394;-85
2022/09/11 09:57:38;;;;;;;4.30;2.50;;;14.10;75.40;;;;;;5117884;28;20371;-82
2022/09/11 10:00:10;;;;;;;5.55;2.60;;;14.00;77.40;;;;;;5116707;28;20415;-83
2022/09/11 10:02:43;;;;;;;6.30;2.70;;;13.90;78.50;;;;;;5115390;28;20367;-80
2022/09/11 10:05:18;;;;;;;6.38;2.35;;;13.80;80.50;;;;;;5115045;28;20367;-82
2022/09/11 10:08:04;;;;;;;5.50;2.50;;;13.80;83.00;;;;;;5114640;28;20860;-82
2022/09/11 10:10:37;;;;;;;6.45;2.45;;;13.80;84.00;;;;;;5114303;28;20410;-78
2022/09/11 10:13:16;;;;;;;5.07;2.50;;;13.80;84.50;;;;;;5114522;28;20371;-80
2022/09/11 10:15:43;;;;;;;5.53;2.63;;;13.70;83.80;;;;;;5114334;28;20934;-79
2022/09/11 10:18:29;;;;;;;6.53;2.90;;;13.70;85.20;;;;;;5114497;28;20373;-83
2022/09/11 10:21:11;;;;;;;4.70;2.90;;;13.50;86.50;;;;;;5114604;28;20441;-77
2022/09/11 10:23:54;;;;;;;5.90;3.23;;;13.50;88.80;;;;;;5114463;28;20726;-80
2022/09/11 10:26:26;;;;;;;5.80;3.40;;;13.40;90.00;;;;;;5114031;28;20355;-79
2022/09/11 10:28:59;;;;;;;3.72;2.40;;;13.30;90.20;;;;;;5113881;28;20893;-79
2022/09/11 10:31:26;;;;;;;2.95;1.73;;;13.30;90.20;;;;;;5114165;28;20364;-81
2022/09/11 10:34:00;;;;;;;2.97;1.70;;;13.20;89.00;;;;;;5113832;28;20402;-80
2022/09/11 10:36:30;;;;;;;3.60;1.40;;;13.30;87.70;;;;;;5113750;28;20895;-79
2022/09/11 10:38:59;;;;;;;4.00;1.30;;;13.30;87.20;;;;;;5113453;28;20862;-80
2022/09/11 10:41:33;;;;;;;4.53;1.30;;;13.30;85.10;;;;;;5113674;28;20379;-79
2022/09/11 10:44:12;;;;;;;4.70;1.20;;;13.40;84.50;;;;;;5113488;28;20446;-77
2022/09/11 10:46:45;;;;;;;4.18;1.50;;;13.40;84.50;;;;;;5113653;28;20359;-80
2022/09/11 10:49:23;;;;;;;6.28;1.58;;;13.40;84.10;;;;;;5094945;28;20382;-79
2022/09/11 10:52:08;;;;;;;4.00;1.55;;;13.30;84.60;;;;;;5113278;28;20374;-80
2022/09/11 10:54:58;;;;;;;3.78;1.63;;;13.20;85.20;;;;;;5113363;28;20371;-82
2022/09/11 10:57:49;;;;;;;3.70;1.60;;;13.10;86.70;;;;;;5113184;28;20367;-81
2022/09/11 11:00:26;;;;;;;4.47;1.50;;;13.10;87.20;;;;;;5113478;28;20370;-79
2022/09/11 11:03:20;;;;;;;3.28;1.50;;;12.90;88.20;;;;;;5112967;28;20389;-79
2022/09/11 11:06:13;;;;;;;3.70;1.33;;;13.00;87.10;;;;;;5113497;28;20374;-78
2022/09/11 11:08:58;;;;;;;5.27;1.40;;;13.00;86.80;;;;;;5112239;28;20458;-79
2022/09/11 11:11:44;;;;;;;5.15;1.33;;;13.00;86.00;;;;;;5112872;28;20367;-79
2022/09/11 11:14:50;;;;;;;2.45;1.23;;;13.00;86.10;;;;;;5113163;28;20730;-79
2022/09/11 11:17:48;;;;;;;4.28;1.30;;;12.80;86.60;;;;;;5112990;28;20383;-79
2022/09/11 11:20:30;;;;;;;2.88;1.30;;;12.70;89.00;;;;;;5050350;28;20375;-79
2022/09/11 11:23:06;;;;;;;2.88;1.23;;;12.60;90.50;;;;;;5050600;28;20383;-79
2022/09/11 11:25:49;;;;;;;2.85;1.33;;;12.40;91.30;;;;;;5050319;28;20380;-80
2022/09/11 11:28:48;;;;;;;4.27;1.40;;;12.30;92.10;;;;;;5050838;28;20438;-81
2022/09/11 11:31:33;;;;;;;3.70;1.42;;;12.10;93.10;;;;;;5011106;28;20380;-80
2022/09/11 11:34:19;;;;;;;5.80;1.70;;;12.00;93.80;;;;;;5010940;28;20425;-82
2022/09/11 11:37:22;;;;;;;3.60;1.40;;;11.90;94.60;;;;;;5011232;28;20391;-80
2022/09/11 11:40:10;;;;;;;4.60;1.50;;;11.90;94.60;;;;;;5011015;28;20401;-81
2022/09/11 11:42:45;;;;;;;3.28;1.40;;;12.00;94.00;;;;;;5010813;28;20383;-77
2022/09/11 11:45:37;;;;;;;3.47;1.10;;;12.10;94.10;;;;;;5010830;28;20396;-79
2022/09/11 11:48:31;;;;;;;2.47;1.17;;;12.10;93.40;;;;;;5010376;28;20375;-79
2022/09/11 11:51:07;;;;;;;1.88;1.13;;;12.10;93.40;;;;;;5011067;28;20442;-78
2022/09/11 11:54:07;;;;;;;4.28;1.40;;;12.10;93.40;;;;;;5010419;28;20871;-80
2022/09/11 11:56:56;;;;;;;4.75;1.73;;;12.00;93.50;;;;;;5018706;28;20398;-79
2022/09/11 11:59:43;;;;;;;4.10;1.50;;;12.00;93.60;;;;;;5030945;28;20833;-80
2022/09/11 12:02:10;;;;;;;3.35;1.60;;;11.90;93.90;;;;;;5030889;28;20477;-78
2022/09/11 12:05:01;;;;;;;2.97;1.50;;;11.90;94.70;;;;;;5030436;28;20381;-78
2022/09/11 12:07:32;;;;;;;3.60;1.40;;;11.80;95.30;;;;;;5055642;28;20435;-78
2022/09/11 12:10:02;;;;;;;5.53;1.60;;;11.80;95.90;;;;;;5112432;28;20378;-79
2022/09/11 12:12:33;;;;;;;4.22;1.60;;;11.70;95.80;;;;;;5112343;28;20406;-78
2022/09/11 12:15:24;;;;;;;3.40;1.50;;;11.60;96.20;;;;;;5112184;28;20438;-78
2022/09/11 12:18:00;;;;;;;6.53;1.75;;;11.50;96.60;;;;;;5109469;28;20363;-80
2022/09/11 12:20:31;;;;;;;6.43;2.23;;;11.50;97.00;;;;;;5113524;28;20770;-79
2022/09/11 12:22:59;;;;;;;7.10;2.13;;;11.40;96.80;;;;;;5116031;28;20866;-78
2022/09/11 12:25:29;;;;;;;14.70;2.28;;;11.40;96.90;;;;;;5115874;28;20438;-79
2022/09/11 12:28:21;;;;;;;14.18;2.10;;;11.40;96.70;;;;;;5115983;28;20393;-78
2022/09/11 12:31:23;;;;;;;7.63;1.80;;;11.30;96.70;;;;;;5088537;28;20371;-78
2022/09/11 12:33:53;;;;;;;7.90;2.07;;;11.20;97.60;;;;;;5111825;28;20374;-80
2022/09/11 12:36:23;;;;;;;7.20;2.00;;;11.10;98.30;;;;;;5115637;28;20402;-82
2022/09/11 12:38:53;;;;;;;7.30;1.85;;;11.20;99.00;;;;;;5115686;28;20371;-76
2022/09/11 12:41:33;;;;;;;10.73;1.67;;;11.10;98.60;;;;;;5115536;28;20373;-76
2022/09/11 12:44:03;;;;;;;5.82;1.60;;;11.20;98.40;;;;;;5115542;28;20363;-78
2022/09/11 12:46:30;;;;;;;4.82;1.70;;;11.20;98.60;;;;;;5115484;28;20358;-80
2022/09/11 12:48:59;;;;;;;4.63;1.48;;;11.10;99.00;;;;;;5115418;28;20950;-78
2022/09/11 12:52:00;;;;;;;4.40;1.23;;;11.00;98.70;;;;;;5115678;28;20373;-78
2022/09/11 12:54:41;;;;;;;4.85;1.20;;;11.00;98.60;;;;;;5032790;28;20879;-76
2022/09/11 12:57:18;;;;;;;5.38;1.30;;;11.00;98.10;;;;;;5032634;28;20389;-78
2022/09/11 12:59:51;;;;;;;5.20;1.23;;;11.10;97.70;;;;;;5018003;28;20370;-77
2022/09/11 13:02:41;;;;;;;4.07;1.25;;;11.20;97.50;;;;;;5034241;28;20385;-77
2022/09/11 13:05:38;;;;;;;5.45;1.40;;;11.10;97.60;;;;;;5038511;28;20408;-76
2022/09/11 13:08:16;;;;;;;4.22;1.45;;;11.10;97.50;;;;;;5036330;28;20493;-80
2022/09/11 13:10:45;;;;;;;3.25;1.30;;;11.10;97.30;;;;;;5034353;28;20386;-79
2022/09/11 13:13:36;;;;;;;3.33;1.35;;;11.10;96.80;;;;;;5017200;28;20381;-80
2022/09/11 13:16:24;;;;;;;3.93;1.20;;;11.20;96.60;;;;;;5033648;28;20402;-79
2022/09/11 13:19:07;;;;;;;2.72;1.20;;;11.20;95.90;;;;;;5033093;28;20369;-77
2022/09/11 13:21:58;;;;;;;4.43;1.35;;;11.20;96.30;;;;;;5032898;28;20406;-80
2022/09/11 13:24:29;;;;;;;5.53;1.60;;;11.20;96.10;;;;;;5032483;28;20405;-75
2022/09/11 13:27:04;;;;;;;7.22;1.80;;;11.10;96.10;;;;;;5032441;28;20746;-77